Time;durP1;ratioP1;P1;durP2;ratioP2;P2;SDS_P1;SDS_P2;PMS_P1;PMS_P2;Temp;Humidity;BMP_temperature;BMP_pressure;BME280_temperature;BME280_humidity;BME280_pressure;Samples;Min_cycle;Max_cycle;Signal;HPM_P1;HPM_P2
2023/05/22 00:00:36;;;;;;;;;;;19.50;99.90;;;;;;5036071;28;20050;-74
2023/05/22 00:03:03;;;;;;;;;;;19.50;99.90;;;;;;5038491;28;19920;-74
2023/05/22 00:05:29;;;;;;;;;;;19.50;99.90;;;;;;5039654;28;19963;-73
2023/05/22 00:07:55;;;;;;;;;;;19.40;99.90;;;;;;5035912;28;19949;-73
2023/05/22 00:10:20;;;;;;;;;;;19.40;99.90;;;;;;5039700;28;19955;-73
2023/05/22 00:12:46;;;;;;;;;;;19.40;99.90;;;;;;5040535;28;19913;-73
2023/05/22 00:15:11;;;;;;;;;;;19.40;99.90;;;;;;5037478;28;19917;-72
2023/05/22 00:17:37;;;;;;;;;;;19.40;99.90;;;;;;5038492;28;20380;-74
2023/05/22 00:20:05;;;;;;;;;;;19.30;99.90;;;;;;5039805;28;19947;-74
2023/05/22 00:22:34;;;;;;;;;;;19.40;99.90;;;;;;5037871;28;19913;-72
2023/05/22 00:25:03;;;;;;;;;;;19.30;99.90;;;;;;5037572;28;19913;-74
2023/05/22 00:27:28;;;;;;;;;;;19.30;99.90;;;;;;5039643;28;19940;-74
2023/05/22 00:29:54;;;;;;;;;;;19.30;99.90;;;;;;5037163;28;19924;-74
2023/05/22 00:32:20;;;;;;;;;;;19.30;99.90;;;;;;5036033;28;19943;-74
2023/05/22 00:34:45;;;;;;;;;;;19.30;99.90;;;;;;5053413;28;20496;-74
2023/05/22 00:37:11;;;;;;;;;;;19.20;99.90;;;;;;5035594;28;19979;-71
2023/05/22 00:39:37;;;;;;;;;;;19.20;99.90;;;;;;5039835;28;19913;-74
2023/05/22 00:42:02;;;;;;;;;;;19.20;99.90;;;;;;5053407;28;19955;-72
2023/05/22 00:44:28;;;;;;;;;;;19.20;99.90;;;;;;5037776;28;19909;-72
2023/05/22 00:46:54;;;;;;;;;;;19.20;99.90;;;;;;5036624;28;19913;-74
2023/05/22 00:49:20;;;;;;;;;;;19.20;99.90;;;;;;5039496;28;19959;-73
2023/05/22 00:51:45;;;;;;;;;;;19.20;99.90;;;;;;5034446;28;20018;-74
2023/05/22 00:54:11;;;;;;;;;;;19.20;99.90;;;;;;5038828;28;19927;-73
2023/05/22 00:56:37;;;;;;;;;;;19.20;99.90;;;;;;5050584;28;19967;-74
2023/05/22 00:59:03;;;;;;;;;;;19.20;99.90;;;;;;5053114;28;20023;-72
2023/05/22 01:01:32;;;;;;;;;;;19.20;99.90;;;;;;5036700;28;19917;-74
2023/05/22 01:04:00;;;;;;;;;;;19.10;99.90;;;;;;5032603;28;19955;-72
2023/05/22 01:06:26;;;;;;;;;;;19.10;99.90;;;;;;5039790;28;19923;-72
2023/05/22 01:08:52;;;;;;;;;;;19.10;99.90;;;;;;5038413;28;20484;-73
2023/05/22 01:11:39;;;;;;;;;;;19.10;99.90;;;;;;5034344;28;19913;-74
2023/05/22 01:14:09;;;;;;;;;;;19.00;99.90;;;;;;5034450;28;19924;-72
2023/05/22 01:16:53;;;;;;;;;;;19.00;99.90;;;;;;5036917;28;19990;-74
2023/05/22 01:19:38;;;;;;;;;;;19.00;99.90;;;;;;5039314;28;20012;-72
2023/05/22 01:22:20;;;;;;;;;;;19.00;99.90;;;;;;5038420;28;19917;-72
2023/05/22 01:24:58;;;;;;;;;;;19.00;99.90;;;;;;5038183;28;20265;-74
2023/05/22 01:27:33;;;;;;;;;;;18.90;99.90;;;;;;5050324;28;19917;-72
2023/05/22 01:30:10;;;;;;;;;;;18.90;99.90;;;;;;5036466;28;20048;-74
2023/05/22 01:32:37;;;;;;;;;;;18.90;99.90;;;;;;5051475;28;20369;-73
2023/05/22 01:35:04;;;;;;;;;;;18.90;99.90;;;;;;5035863;28;19917;-74
2023/05/22 01:37:30;;;;;;;;;;;18.90;99.90;;;;;;5018321;28;19921;-73
2023/05/22 01:39:56;;;;;;;;;;;18.80;99.90;;;;;;5035967;28;19921;-71
2023/05/22 01:42:22;;;;;;;;;;;18.80;99.90;;;;;;5037307;28;19935;-73
2023/05/22 01:44:48;;;;;;;;;;;18.80;99.90;;;;;;5051400;28;19933;-73
2023/05/22 01:47:13;;;;;;;;;;;18.80;99.90;;;;;;5036538;28;19917;-73
2023/05/22 01:49:39;;;;;;;;;;;18.70;99.90;;;;;;5049112;28;20329;-72
2023/05/22 01:52:21;;;;;;;;;;;18.70;99.90;;;;;;5033105;28;19960;-72
2023/05/22 01:54:51;;;;;;;;;;;18.70;99.90;;;;;;5034002;28;19960;-72
2023/05/22 01:57:26;;;;;;;;;;;18.70;99.90;;;;;;5037856;28;20008;-73
2023/05/22 01:59:55;;;;;;;;;;;18.70;99.90;;;;;;5054950;28;19920;-72
2023/05/22 02:02:22;;;;;;;;;;;18.60;99.90;;;;;;5040672;28;20355;-73
2023/05/22 02:04:55;;;;;;;;;;;18.60;99.90;;;;;;5055291;28;20261;-73
2023/05/22 02:07:21;;;;;;;;;;;18.60;99.90;;;;;;5036376;28;19944;-71
2023/05/22 02:09:47;;;;;;;;;;;18.60;99.90;;;;;;5049087;28;19971;-72
2023/05/22 02:12:13;;;;;;;;;;;18.60;99.90;;;;;;5038240;28;19952;-72
2023/05/22 02:14:39;;;;;;;;;;;18.60;99.90;;;;;;5034096;28;19917;-72
2023/05/22 02:17:06;;;;;;;;;;;18.50;99.90;;;;;;5053151;28;19994;-73
2023/05/22 02:19:33;;;;;;;;;;;18.50;99.90;;;;;;5048782;28;19996;-73
2023/05/22 02:21:59;;;;;;;;;;;18.50;99.90;;;;;;5037775;28;19917;-73
2023/05/22 02:24:25;;;;;;;;;;;18.40;99.90;;;;;;5034426;28;20426;-72
2023/05/22 02:26:50;;;;;;;;;;;18.40;99.90;;;;;;5040126;28;19912;-71
2023/05/22 02:29:16;;;;;;;;;;;18.50;99.90;;;;;;5033959;28;20317;-71
2023/05/22 02:31:41;;;;;;;;;;;18.40;99.90;;;;;;5033443;28;19991;-73
2023/05/22 02:34:07;;;;;;;;;;;18.40;99.90;;;;;;5036228;28;19905;-72
2023/05/22 02:36:32;;;;;;;;;;;18.50;99.90;;;;;;5033954;28;19920;-72
2023/05/22 02:38:58;;;;;;;;;;;18.40;99.90;;;;;;5049828;28;20784;-71
2023/05/22 02:41:24;;;;;;;;;;;18.40;99.90;;;;;;5031953;28;19917;-73
2023/05/22 02:43:49;;;;;;;;;;;18.40;99.90;;;;;;5034993;28;19935;-71
2023/05/22 02:46:15;;;;;;;;;;;18.40;99.90;;;;;;5036119;28;19913;-73
2023/05/22 02:48:41;;;;;;;;;;;18.40;99.90;;;;;;5033527;28;20593;-71
2023/05/22 02:51:06;;;;;;;;;;;18.30;99.90;;;;;;5032862;28;20496;-71
2023/05/22 02:53:38;;;;;;;;;;;18.40;99.90;;;;;;5034290;28;20473;-71
2023/05/22 02:56:09;;;;;;;;;;;18.30;99.90;;;;;;5031997;28;19913;-71
2023/05/22 02:58:35;;;;;;;;;;;18.30;99.90;;;;;;5053548;28;19921;-72
2023/05/22 03:01:02;;;;;;;;;;;18.30;99.90;;;;;;5047444;28;19928;-71
2023/05/22 03:03:28;;;;;;;;;;;18.40;99.90;;;;;;5035696;28;19921;-73
2023/05/22 03:05:57;;;;;;;;;;;18.30;99.90;;;;;;5036390;28;19917;-71
2023/05/22 03:08:23;;;;;;;;;;;18.30;99.90;;;;;;5050042;28;19924;-71
2023/05/22 03:10:49;;;;;;;;;;;18.30;99.90;;;;;;5032275;28;19919;-73
2023/05/22 03:13:14;;;;;;;;;;;18.30;99.90;;;;;;5038197;28;19963;-73
2023/05/22 03:15:40;;;;;;;;;;;18.30;99.90;;;;;;5032662;28;19917;-73
2023/05/22 03:18:06;;;;;;;;;;;18.30;99.90;;;;;;5034243;28;20014;-72
2023/05/22 03:20:32;;;;;;;;;;;18.30;99.90;;;;;;5033887;28;20561;-73
2023/05/22 03:22:58;;;;;;;;;;;18.30;99.90;;;;;;5038508;28;20458;-74
2023/05/22 03:25:24;;;;;;;;;;;18.30;99.90;;;;;;5054785;28;20008;-74
2023/05/22 03:27:49;;;;;;;;;;;18.30;99.90;;;;;;5055056;28;19920;-71
2023/05/22 03:30:15;;;;;;;;;;;18.30;99.90;;;;;;5038329;28;20304;-71
2023/05/22 03:32:40;;;;;;;;;;;18.30;99.90;;;;;;5039653;28;20341;-72
2023/05/22 03:35:06;;;;;;;;;;;18.30;99.90;;;;;;5034180;28;20004;-74
2023/05/22 03:37:32;;;;;;;;;;;18.30;99.90;;;;;;5037725;28;20392;-73
2023/05/22 03:39:57;;;;;;;;;;;18.30;99.90;;;;;;5038853;28;19933;-73
2023/05/22 03:42:23;;;;;;;;;;;18.30;99.90;;;;;;5035408;28;19913;-73
2023/05/22 03:44:48;;;;;;;;;;;18.30;99.90;;;;;;5039173;28;20011;-73
2023/05/22 03:47:14;;;;;;;;;;;18.20;99.90;;;;;;5051747;28;19986;-71
2023/05/22 03:49:40;;;;;;;;;;;18.20;99.90;;;;;;5051567;28;19925;-71
2023/05/22 03:52:08;;;;;;;;;;;18.20;99.90;;;;;;5038533;28;19951;-72
2023/05/22 03:54:34;;;;;;;;;;;18.20;99.90;;;;;;5052610;28;19964;-72
2023/05/22 03:56:59;;;;;;;;;;;18.30;99.90;;;;;;5038095;28;20035;-72
2023/05/22 03:59:25;;;;;;;;;;;18.30;99.90;;;;;;5035718;28;19957;-71
2023/05/22 04:01:51;;;;;;;;;;;18.30;99.90;;;;;;5039840;28;20343;-71
2023/05/22 04:04:16;;;;;;;;;;;18.30;99.90;;;;;;5051736;28;19909;-73
2023/05/22 04:06:42;;;;;;;;;;;18.30;99.90;;;;;;5035722;28;20396;-73
2023/05/22 04:09:10;;;;;;;;;;;18.30;99.90;;;;;;5037892;28;19955;-73
2023/05/22 04:11:38;;;;;;;;;;;18.30;99.90;;;;;;5038462;28;20526;-74
2023/05/22 04:14:04;;;;;;;;;;;18.30;99.90;;;;;;5039623;28;19968;-74
2023/05/22 04:16:30;;;;;;;;;;;18.30;99.90;;;;;;5053330;28;19920;-72
2023/05/22 04:18:56;;;;;;;;;;;18.30;99.90;;;;;;5039800;28;20020;-73
2023/05/22 04:21:23;;;;;;;;;;;18.30;99.90;;;;;;5052982;28;20117;-72
2023/05/22 04:23:49;;;;;;;;;;;18.40;99.90;;;;;;5038267;28;19975;-72
2023/05/22 04:26:16;;;;;;;;;;;18.30;99.90;;;;;;5040585;28;19958;-74
2023/05/22 04:28:44;;;;;;;;;;;18.30;99.90;;;;;;5028002;28;20568;-74
2023/05/22 04:31:13;;;;;;;;;;;18.30;99.90;;;;;;5032154;28;20445;-73
2023/05/22 04:33:39;;;;;;;;;;;18.60;99.90;;;;;;5032655;28;20000;-72
2023/05/22 04:36:05;;;;;;;;;;;18.70;99.90;;;;;;5036722;28;19999;-71
2023/05/22 04:38:35;;;;;;;;;;;18.80;99.90;;;;;;5051744;28;20023;-71
2023/05/22 04:41:02;;;;;;;;;;;18.80;99.90;;;;;;5036692;28;19913;-71
2023/05/22 04:43:28;;;;;;;;;;;18.80;99.90;;;;;;5038050;28;19963;-71
2023/05/22 04:45:55;;;;;;;;;;;18.90;99.90;;;;;;5040540;28;19921;-73
2023/05/22 04:48:21;;;;;;;;;;;18.90;99.90;;;;;;5044388;28;19916;-71
2023/05/22 04:50:47;;;;;;;;;;;19.00;99.90;;;;;;5037615;28;20288;-72
2023/05/22 04:53:15;;;;;;;;;;;18.90;99.90;;;;;;5016087;28;19943;-72
2023/05/22 04:55:40;;;;;;;;;;;18.90;99.90;;;;;;5034030;28;19922;-74
2023/05/22 04:58:06;;;;;;;;;;;18.80;99.90;;;;;;5031160;28;19913;-74
2023/05/22 05:00:32;;;;;;;;;;;18.80;99.90;;;;;;5032724;28;19917;-74
2023/05/22 05:02:59;;;;;;;;;;;18.80;99.90;;;;;;5028956;28;19988;-74
2023/05/22 05:05:24;;;;;;;;;;;18.80;99.90;;;;;;5049570;28;20000;-74
2023/05/22 05:07:50;;;;;;;;;;;18.80;99.90;;;;;;5053052;28;20017;-72
2023/05/22 05:10:16;;;;;;;;;;;18.80;99.90;;;;;;5049238;28;19924;-72
2023/05/22 05:12:42;;;;;;;;;;;18.80;99.90;;;;;;5035639;28;19914;-72
2023/05/22 05:15:08;;;;;;;;;;;18.80;99.90;;;;;;5034227;28;19916;-73
2023/05/22 05:17:33;;;;;;;;;;;18.90;99.90;;;;;;5031984;28;20053;-71
2023/05/22 05:19:59;;;;;;;;;;;18.90;99.90;;;;;;5035840;28;19913;-72
2023/05/22 05:22:26;;;;;;;;;;;18.90;99.90;;;;;;5033158;28;19917;-72
2023/05/22 05:24:51;;;;;;;;;;;18.90;99.90;;;;;;5037837;28;19917;-72
2023/05/22 05:27:17;;;;;;;;;;;18.90;99.90;;;;;;5032301;28;19928;-72
2023/05/22 05:29:43;;;;;;;;;;;18.90;99.90;;;;;;5050569;28;19928;-71
2023/05/22 05:32:10;;;;;;;;;;;19.00;99.90;;;;;;5031036;28;20024;-72
2023/05/22 05:34:35;;;;;;;;;;;19.00;99.90;;;;;;5032963;28;19988;-72
2023/05/22 05:37:01;;;;;;;;;;;19.00;99.90;;;;;;5032125;28;20020;-71
2023/05/22 05:39:27;;;;;;;;;;;19.10;99.90;;;;;;5036338;28;19913;-71
2023/05/22 05:41:52;;;;;;;;;;;19.20;99.90;;;;;;5038832;28;19935;-71
2023/05/22 05:44:18;;;;;;;;;;;19.20;99.90;;;;;;5036273;28;19963;-72
2023/05/22 05:46:43;;;;;;;;;;;19.20;99.90;;;;;;5039081;28;19917;-73
2023/05/22 05:49:10;;;;;;;;;;;19.30;99.90;;;;;;5054481;28;20403;-74
2023/05/22 05:51:36;;;;;;;;;;;19.30;99.90;;;;;;5056423;28;20431;-71
2023/05/22 05:54:01;;;;;;;;;;;19.40;99.90;;;;;;5034598;28;19964;-73
2023/05/22 05:56:27;;;;;;;;;;;19.40;99.90;;;;;;5050996;28;19925;-71
2023/05/22 05:58:53;;;;;;;;;;;19.50;99.90;;;;;;5037864;28;21326;-71
2023/05/22 06:01:18;;;;;;;;;;;19.50;99.90;;;;;;5051315;28;20038;-71
2023/05/22 06:03:44;;;;;;;;;;;19.60;99.90;;;;;;5051471;28;19917;-74
2023/05/22 06:06:11;;;;;;;;;;;19.60;99.90;;;;;;5040262;28;20108;-76
2023/05/22 06:08:38;;;;;;;;;;;19.50;99.90;;;;;;5053155;28;19943;-79
2023/05/22 06:11:04;;;;;;;;;;;19.50;99.90;;;;;;5037300;28;19977;-80
2023/05/22 06:13:30;;;;;;;;;;;19.60;99.90;;;;;;5052972;28;20694;-72
2023/05/22 06:15:55;;;;;;;;;;;19.50;99.90;;;;;;5039185;28;19913;-73
2023/05/22 06:18:22;;;;;;;;;;;19.60;99.90;;;;;;5033408;28;19916;-74
2023/05/22 06:20:48;;;;;;;;;;;19.60;99.90;;;;;;5034922;28;20011;-74
2023/05/22 06:23:13;;;;;;;;;;;19.60;99.90;;;;;;5033219;28;20487;-75
2023/05/22 06:25:39;;;;;;;;;;;19.70;99.90;;;;;;5038580;28;20514;-71
2023/05/22 06:28:05;;;;;;;;;;;19.80;99.90;;;;;;5049836;28;19916;-73
2023/05/22 06:30:30;;;;;;;;;;;19.80;99.90;;;;;;5041185;28;19920;-73
2023/05/22 06:32:56;;;;;;;;;;;19.80;99.90;;;;;;5054800;28;20332;-73
2023/05/22 06:35:22;;;;;;;;;;;19.80;99.80;;;;;;5035318;28;19928;-72
2023/05/22 06:37:48;;;;;;;;;;;19.90;99.80;;;;;;5050751;28;20368;-71
2023/05/22 06:40:14;;;;;;;;;;;19.90;99.90;;;;;;5031426;28;19921;-74
2023/05/22 06:42:39;;;;;;;;;;;19.90;99.70;;;;;;5051960;28;19919;-73
2023/05/22 06:45:06;;;;;;;;;;;19.90;99.20;;;;;;5031421;28;19920;-73
2023/05/22 06:47:31;;;;;;;;;;;19.90;99.40;;;;;;5034200;28;19917;-73
2023/05/22 06:49:57;;;;;;;;;;;20.00;99.50;;;;;;5029860;28;19927;-75
2023/05/22 06:52:22;;;;;;;;;;;20.00;99.40;;;;;;5014278;28;19925;-74
2023/05/22 06:54:48;;;;;;;;;;;20.00;99.40;;;;;;5032215;28;19913;-74
2023/05/22 06:57:13;;;;;;;;;;;20.10;99.40;;;;;;5035698;28;19912;-74
2023/05/22 06:59:39;;;;;;;;;;;20.20;99.70;;;;;;5035671;28;19944;-74
2023/05/22 07:02:05;;;;;;;;;;;20.20;99.40;;;;;;5048866;28;20403;-74
2023/05/22 07:04:31;;;;;;;;;;;20.30;99.00;;;;;;5036576;28;19941;-74
2023/05/22 07:06:56;;;;;;;;;;;20.40;98.70;;;;;;5037430;28;19920;-74
2023/05/22 07:09:22;;;;;;;;;;;20.50;98.90;;;;;;5054464;28;19953;-75
2023/05/22 07:11:48;;;;;;;;;;;20.60;98.70;;;;;;5055973;28;20007;-72
2023/05/22 07:14:13;;;;;;;;;;;20.70;98.20;;;;;;5038851;28;20920;-72
2023/05/22 07:16:39;;;;;;;;;;;20.80;98.10;;;;;;5037945;28;20356;-72
2023/05/22 07:19:05;;;;;;;;;;;20.80;97.10;;;;;;5041188;28;19919;-72
2023/05/22 07:21:31;;;;;;;;;;;20.90;96.70;;;;;;5032465;28;20424;-72
2023/05/22 07:23:57;;;;;;;;;;;21.00;96.90;;;;;;5051244;28;20019;-72
2023/05/22 07:26:22;;;;;;;;;;;21.10;96.30;;;;;;5039273;28;20016;-72
2023/05/22 07:28:48;;;;;;;;;;;21.10;96.10;;;;;;5041371;28;19917;-72
2023/05/22 07:31:14;;;;;;;;;;;21.10;96.20;;;;;;5037364;28;20502;-73
2023/05/22 07:33:39;;;;;;;;;;;21.20;96.10;;;;;;5037691;28;20371;-73
2023/05/22 07:36:05;;;;;;;;;;;21.30;95.80;;;;;;5050772;28;19920;-73
2023/05/22 07:38:32;;;;;;;;;;;21.40;95.70;;;;;;5037147;28;19917;-73
2023/05/22 07:40:57;;;;;;;;;;;21.50;95.40;;;;;;5047607;28;19945;-71
2023/05/22 07:43:23;;;;;;;;;;;21.60;94.90;;;;;;5037611;28;19948;-74
2023/05/22 07:45:49;;;;;;;;;;;21.70;94.80;;;;;;5033620;28;19916;-71
2023/05/22 07:48:15;;;;;;;;;;;21.80;94.70;;;;;;5053635;28;19992;-74
2023/05/22 07:50:44;;;;;;;;;;;21.90;95.00;;;;;;5034111;28;20481;-74
2023/05/22 07:53:10;;;;;;;;;;;21.90;95.50;;;;;;5054209;28;19925;-71
2023/05/22 07:55:36;;;;;;;;;;;21.90;94.10;;;;;;5036074;28;19917;-75
2023/05/22 07:58:03;;;;;;;;;;;21.90;94.10;;;;;;5041058;28;19924;-74
2023/05/22 08:00:28;;;;;;;;;;;21.90;93.70;;;;;;5052568;28;20998;-74
2023/05/22 08:02:54;;;;;;;;;;;22.00;93.70;;;;;;5032425;28;20026;-71
2023/05/22 08:05:20;;;;;;;;;;;22.00;93.70;;;;;;5034736;28;19917;-71
2023/05/22 08:07:45;;;;;;;;;;;22.10;94.10;;;;;;5033817;28;20385;-71
2023/05/22 08:10:15;;;;;;;;;;;22.10;94.00;;;;;;5036197;28;19920;-71
2023/05/22 08:12:42;;;;;;;;;;;22.20;92.80;;;;;;5032432;28;20009;-71
2023/05/22 08:15:08;;;;;;;;;;;22.20;91.80;;;;;;5030019;28;19990;-71
2023/05/22 08:17:34;;;;;;;;;;;22.30;91.70;;;;;;5038314;28;19925;-71
2023/05/22 08:20:03;;;;;;;;;;;22.30;91.10;;;;;;5038941;28;19913;-71
2023/05/22 08:22:30;;;;;;;;;;;22.40;90.80;;;;;;5033482;28;19921;-71
2023/05/22 08:24:55;;;;;;;;;;;22.40;90.50;;;;;;5036333;28;19913;-71
2023/05/22 08:27:21;;;;;;;;;;;22.40;90.00;;;;;;5054025;28;19925;-71
2023/05/22 08:29:47;;;;;;;;;;;22.40;89.60;;;;;;5052648;28;19924;-71
2023/05/22 08:32:13;;;;;;;;;;;22.50;88.70;;;;;;5049982;28;20016;-71
2023/05/22 08:34:39;;;;;;;;;;;22.50;88.60;;;;;;5050233;28;19974;-71
2023/05/22 08:37:05;;;;;;;;;;;22.60;88.10;;;;;;5037142;28;19995;-71
2023/05/22 08:39:31;;;;;;;;;;;22.60;89.40;;;;;;5021156;28;19912;-71
2023/05/22 08:41:58;;;;;;;;;;;22.70;87.40;;;;;;5053283;28;19913;-72
2023/05/22 08:44:24;;;;;;;;;;;22.80;87.50;;;;;;5055223;28;19916;-71
2023/05/22 08:46:50;;;;;;;;;;;22.90;87.50;;;;;;5049839;28;19924;-71
2023/05/22 08:49:17;;;;;;;;;;;23.00;86.40;;;;;;5034350;28;20068;-71
2023/05/22 08:51:46;;;;;;;;;;;23.10;86.10;;;;;;5054131;28;19919;-72
2023/05/22 08:54:13;;;;;;;;;;;23.20;86.50;;;;;;5052154;28;19921;-72
2023/05/22 08:56:39;;;;;;;;;;;23.30;84.50;;;;;;5034828;28;20288;-71
2023/05/22 08:59:06;;;;;;;;;;;23.40;84.90;;;;;;5051667;28;19943;-71
2023/05/22 09:01:32;;;;;;;;;;;23.40;83.50;;;;;;5051572;28;20339;-71
2023/05/22 09:04:01;;;;;;;;;;;23.40;84.40;;;;;;5036903;28;19917;-72
2023/05/22 09:06:28;;;;;;;;;;;23.50;82.50;;;;;;5062297;28;19913;-75
2023/05/22 09:08:57;;;;;;;;;;;23.50;81.40;;;;;;5041722;28;20553;-75
2023/05/22 09:11:23;;;;;;;;;;;23.50;81.20;;;;;;5036934;28;19939;-74
2023/05/22 09:13:50;;;;;;;;;;;23.50;80.90;;;;;;5039717;28;19932;-74
2023/05/22 09:16:17;;;;;;;;;;;23.60;80.10;;;;;;5058700;28;19917;-74
2023/05/22 09:18:43;;;;;;;;;;;23.50;79.60;;;;;;5038797;28;20012;-74
2023/05/22 09:21:09;;;;;;;;;;;23.50;80.10;;;;;;5039140;28;19980;-74
2023/05/22 09:23:36;;;;;;;;;;;23.50;80.50;;;;;;5050849;28;19914;-75
2023/05/22 09:26:02;;;;;;;;;;;23.60;80.00;;;;;;5036582;28;19955;-75
2023/05/22 09:28:33;;;;;;;;;;;23.60;79.90;;;;;;5036708;28;19924;-74
2023/05/22 09:30:59;;;;;;;;;;;23.60;80.40;;;;;;5051424;28;19924;-75
2023/05/22 09:33:26;;;;;;;;;;;23.60;78.40;;;;;;5037355;28;19913;-75
2023/05/22 09:35:52;;;;;;;;;;;23.70;78.30;;;;;;5036391;28;19913;-74
2023/05/22 09:38:18;;;;;;;;;;;23.70;77.20;;;;;;5048314;28;19917;-74
2023/05/22 09:40:43;;;;;;;;;;;23.80;77.50;;;;;;5053553;28;20646;-75
2023/05/22 09:43:09;;;;;;;;;;;23.80;77.10;;;;;;5051884;28;19928;-75
2023/05/22 09:45:35;;;;;;;;;;;23.90;78.30;;;;;;5044336;28;19913;-75
2023/05/22 09:48:03;;;;;;;;;;;24.00;75.70;;;;;;5034969;28;19920;-75
2023/05/22 09:50:30;;;;;;;;;;;24.00;74.60;;;;;;5050997;28;19924;-74
2023/05/22 09:52:57;;;;;;;;;;;24.00;75.60;;;;;;5035407;28;19924;-74
2023/05/22 09:55:24;;;;;;;;;;;24.00;74.60;;;;;;5033302;28;19924;-74
2023/05/22 09:57:51;;;;;;;;;;;24.10;74.80;;;;;;5050734;28;19920;-76
2023/05/22 10:00:18;;;;;;;;;;;24.10;73.90;;;;;;5037464;28;19920;-74
2023/05/22 10:02:45;;;;;;;;;;;24.20;74.40;;;;;;5037230;28;20022;-74
2023/05/22 10:05:12;;;;;;;;;;;24.30;73.40;;;;;;5034066;28;19924;-76
2023/05/22 10:07:45;;;;;;;;;;;24.40;73.90;;;;;;5028698;28;19995;-73
2023/05/22 10:10:11;;;;;;;;;;;24.40;72.80;;;;;;5035954;28;20444;-74
2023/05/22 10:12:56;;;;;;;;;;;24.50;73.50;;;;;;5053155;28;19912;-76
2023/05/22 10:15:22;;;;;;;;;;;24.60;71.90;;;;;;5056166;28;19924;-77
2023/05/22 10:17:49;;;;;;;;;;;24.70;70.70;;;;;;5049917;28;19913;-76
2023/05/22 10:20:15;;;;;;;;;;;24.80;70.90;;;;;;5028296;28;20428;-76
2023/05/22 10:22:41;;;;;;;;;;;24.90;71.50;;;;;;5036640;28;19912;-73
2023/05/22 10:25:07;;;;;;;;;;;25.10;71.20;;;;;;5052734;28;19917;-73
2023/05/22 10:27:32;;;;;;;;;;;25.10;69.20;;;;;;5029807;28;20008;-72
2023/05/22 10:30:09;;;;;;;;;;;25.30;68.80;;;;;;5036199;28;20024;-72
2023/05/22 10:32:38;;;;;;;;;;;25.40;68.50;;;;;;5049847;28;19920;-71
2023/05/22 10:35:23;;;;;;;;;;;25.60;67.50;;;;;;5050640;28;19913;-76
2023/05/22 10:37:53;;;;;;;;;;;25.70;68.10;;;;;;5036523;28;19917;-76
2023/05/22 10:40:32;;;;;;;;;;;26.00;68.50;;;;;;5052957;28;19917;-72
2023/05/22 10:42:58;;;;;;;;;;;26.10;69.10;;;;;;5039029;28;19925;-72
2023/05/22 10:45:35;;;;;;;;;;;26.10;67.20;;;;;;5037745;28;19913;-76
2023/05/22 10:48:04;;;;;;;;;;;26.30;67.10;;;;;;5036097;28;19935;-76
2023/05/22 10:50:30;;;;;;;;;;;26.30;66.90;;;;;;5034888;28;19929;-73
2023/05/22 10:53:15;;;;;;;;;;;26.20;66.20;;;;;;5048395;28;19925;-72
2023/05/22 10:55:48;;;;;;;;;;;26.10;65.70;;;;;;5033203;28;19916;-73
2023/05/22 10:58:17;;;;;;;;;;;25.80;65.80;;;;;;5046352;28;19912;-72
2023/05/22 11:00:43;;;;;;;;;;;25.80;66.10;;;;;;5033055;28;20425;-71
2023/05/22 11:03:10;;;;;;;;;;;25.60;65.60;;;;;;5033938;28;19974;-72
2023/05/22 11:05:36;;;;;;;;;;;25.70;65.20;;;;;;5031930;28;19927;-75
2023/05/22 11:08:31;;;;;;;;;;;25.60;64.70;;;;;;5037795;28;19909;-76
2023/05/22 11:10:57;;;;;;;;;;;25.70;65.10;;;;;;5034680;28;20301;-77
2023/05/22 11:13:26;;;;;;;;;;;25.70;64.70;;;;;;5030185;28;19922;-75
2023/05/22 11:15:53;;;;;;;;;;;25.60;65.10;;;;;;5027914;28;19917;-72
2023/05/22 11:18:19;;;;;;;;;;;25.80;65.40;;;;;;5035491;28;20391;-72
2023/05/22 11:20:45;;;;;;;;;;;26.00;64.50;;;;;;5033530;28;19971;-74
2023/05/22 11:23:12;;;;;;;;;;;26.20;63.70;;;;;;5032823;28;19967;-72
2023/05/22 11:25:39;;;;;;;;;;;26.90;63.30;;;;;;5054350;28;19920;-76
2023/05/22 11:28:09;;;;;;;;;;;27.60;62.80;;;;;;5051135;28;20016;-78
2023/05/22 11:30:35;;;;;;;;;;;28.40;61.80;;;;;;5047851;28;19917;-72
2023/05/22 11:33:01;;;;;;;;;;;29.60;60.20;;;;;;5026930;28;20285;-72
2023/05/22 11:35:27;;;;;;;;;;;30.10;57.30;;;;;;5027372;28;19921;-72
2023/05/22 11:37:54;;;;;;;;;;;30.10;56.40;;;;;;5035482;28;19917;-76
2023/05/22 11:40:20;;;;;;;;;;;29.40;56.70;;;;;;5051314;28;19920;-76
2023/05/22 11:42:47;;;;;;;;;;;29.60;56.50;;;;;;5056591;28;19949;-75
2023/05/22 11:45:13;;;;;;;;;;;29.40;55.90;;;;;;5049905;28;19921;-76
2023/05/22 11:47:40;;;;;;;;;;;28.80;56.00;;;;;;5054190;28;19991;-75
2023/05/22 11:50:11;;;;;;;;;;;28.50;56.90;;;;;;5052951;28;20402;-76
2023/05/22 11:52:38;;;;;;;;;;;28.30;57.00;;;;;;5056363;28;19925;-75
2023/05/22 11:55:05;;;;;;;;;;;28.30;57.20;;;;;;5052586;28;20399;-72
2023/05/22 11:57:37;;;;;;;;;;;28.30;56.90;;;;;;5035048;28;19921;-72
2023/05/22 12:00:05;;;;;;;;;;;28.20;56.80;;;;;;5052873;28;19917;-72
2023/05/22 12:02:31;;;;;;;;;;;28.40;56.40;;;;;;5037645;28;20329;-73
2023/05/22 12:04:57;;;;;;;;;;;28.80;55.70;;;;;;5034925;28;19989;-73
2023/05/22 12:07:23;;;;;;;;;;;29.50;54.70;;;;;;5053302;28;19921;-72
2023/05/22 12:09:49;;;;;;;;;;;29.80;53.80;;;;;;5040851;28;19928;-72
2023/05/22 12:12:15;;;;;;;;;;;29.90;53.70;;;;;;5041505;28;19917;-73
2023/05/22 12:14:44;;;;;;;;;;;29.60;53.60;;;;;;5037919;28;20039;-74
2023/05/22 12:17:15;;;;;;;;;;;29.60;53.80;;;;;;5033494;28;20001;-73
2023/05/22 12:19:41;;;;;;;;;;;29.90;52.50;;;;;;5051627;28;19925;-76
2023/05/22 12:22:08;;;;;;;;;;;30.20;51.50;;;;;;5037583;28;19913;-76
2023/05/22 12:24:40;;;;;;;;;;;30.90;51.10;;;;;;5033986;28;20381;-76
2023/05/22 12:27:07;;;;;;;;;;;31.70;50.20;;;;;;5034484;28;20016;-75
2023/05/22 12:29:34;;;;;;;;;;;32.20;48.90;;;;;;5015760;28;19959;-72
2023/05/22 12:32:02;;;;;;;;;;;32.30;49.10;;;;;;5037544;28;19913;-72
2023/05/22 12:34:31;;;;;;;;;;;32.90;47.20;;;;;;5047713;28;19956;-72
2023/05/22 12:36:57;;;;;;;;;;;33.00;47.00;;;;;;5049568;28;19974;-72
2023/05/22 12:39:23;;;;;;;;;;;34.20;45.40;;;;;;5037806;28;20125;-71
2023/05/22 12:41:48;;;;;;;;;;;34.60;44.10;;;;;;5053000;28;20424;-72
2023/05/22 12:44:15;;;;;;;;;;;34.60;42.80;;;;;;5038292;28;20367;-75
2023/05/22 12:46:42;;;;;;;;;;;34.40;42.30;;;;;;5052900;28;19917;-75
2023/05/22 12:49:08;;;;;;;;;;;33.90;43.10;;;;;;5029156;28;20303;-72
2023/05/22 12:51:34;;;;;;;;;;;34.30;43.90;;;;;;5019911;28;19917;-71
2023/05/22 12:54:00;;;;;;;;;;;34.20;43.20;;;;;;5040228;28;20001;-72
2023/05/22 12:56:26;;;;;;;;;;;34.30;43.30;;;;;;5049813;28;19928;-72
2023/05/22 12:58:52;;;;;;;;;;;34.50;42.20;;;;;;5037105;28;19928;-72
2023/05/22 13:01:17;;;;;;;;;;;34.10;42.30;;;;;;5049867;28;20490;-72
2023/05/22 13:03:44;;;;;;;;;;;33.50;42.00;;;;;;5034235;28;19917;-72
2023/05/22 13:06:11;;;;;;;;;;;34.30;42.70;;;;;;5037638;28;19913;-72
2023/05/22 13:08:36;;;;;;;;;;;35.40;40.50;;;;;;5052042;28;19924;-72
2023/05/22 13:11:02;;;;;;;;;;;35.60;40.40;;;;;;5041357;28;19909;-72
2023/05/22 13:13:28;;;;;;;;;;;34.70;39.80;;;;;;5036335;28;19927;-72
2023/05/22 13:15:53;;;;;;;;;;;34.10;41.00;;;;;;5052237;28;19920;-72
2023/05/22 13:18:19;;;;;;;;;;;33.50;41.20;;;;;;5033766;28;20304;-73
2023/05/22 13:20:45;;;;;;;;;;;33.40;41.40;;;;;;5049136;28;19917;-73
2023/05/22 13:23:10;;;;;;;;;;;34.30;41.30;;;;;;5034186;28;20403;-73
2023/05/22 13:25:36;;;;;;;;;;;33.70;40.80;;;;;;5039473;28;19913;-72
2023/05/22 13:28:02;;;;;;;;;;;33.10;41.80;;;;;;5035047;28;20022;-73
2023/05/22 13:30:28;;;;;;;;;;;33.00;41.50;;;;;;5037207;28;19917;-72
2023/05/22 13:32:54;;;;;;;;;;;32.90;41.80;;;;;;5036774;28;20817;-73
2023/05/22 13:35:19;;;;;;;;;;;33.20;41.60;;;;;;5035784;28;20403;-71
2023/05/22 13:37:45;;;;;;;;;;;32.80;41.50;;;;;;5051273;28;19979;-72
2023/05/22 13:40:11;;;;;;;;;;;32.00;41.80;;;;;;5034121;28;20376;-71
2023/05/22 13:42:37;;;;;;;;;;;31.50;42.20;;;;;;5035689;28;19923;-73
2023/05/22 13:45:05;;;;;;;;;;;31.10;43.60;;;;;;5037336;28;19917;-71
2023/05/22 13:47:31;;;;;;;;;;;30.50;44.20;;;;;;5041768;28;19921;-73
2023/05/22 13:49:57;;;;;;;;;;;30.40;44.40;;;;;;5036934;28;19920;-72
2023/05/22 13:52:22;;;;;;;;;;;30.40;44.50;;;;;;5033640;28;19971;-74
2023/05/22 13:54:49;;;;;;;;;;;30.60;43.10;;;;;;5045663;28;19913;-72
2023/05/22 13:57:15;;;;;;;;;;;30.40;43.10;;;;;;5022645;28;20705;-73
2023/05/22 13:59:42;;;;;;;;;;;30.50;43.70;;;;;;5051948;28;19971;-76
2023/05/22 14:02:08;;;;;;;;;;;31.20;43.30;;;;;;5034997;28;19951;-75
2023/05/22 14:04:34;;;;;;;;;;;31.20;43.10;;;;;;5058659;28;20368;-78
2023/05/22 14:07:00;;;;;;;;;;;30.80;43.50;;;;;;5050792;28;20019;-75
2023/05/22 14:09:26;;;;;;;;;;;30.50;43.80;;;;;;5030222;28;19960;-75
2023/05/22 14:11:56;;;;;;;;;;;30.30;44.70;;;;;;5044948;28;19955;-79
2023/05/22 14:14:23;;;;;;;;;;;29.60;43.60;;;;;;5054249;28;19945;-76